sensor_id;sensor_type;location;lat;lon;timestamp;P1;durP1;ratioP1;P2;durP2;ratioP2
18612;SDS011;9436;52.152;21.032;2022-09-27T00:02:23;21.43;;;19.33;;
18612;SDS011;9436;52.152;21.032;2022-09-27T00:04:50;21.47;;;19.47;;
18612;SDS011;9436;52.152;21.032;2022-09-27T00:07:17;20.40;;;18.40;;
18612;SDS011;9436;52.152;21.032;2022-09-27T00:09:44;21.73;;;19.53;;
18612;SDS011;9436;52.152;21.032;2022-09-27T00:12:11;21.63;;;19.43;;
18612;SDS011;9436;52.152;21.032;2022-09-27T00:14:38;21.83;;;19.57;;
18612;SDS011;9436;52.152;21.032;2022-09-27T00:17:05;21.70;;;19.57;;
18612;SDS011;9436;52.152;21.032;2022-09-27T00:19:34;22.03;;;19.87;;
18612;SDS011;9436;52.152;21.032;2022-09-27T00:22:01;23.80;;;21.30;;
18612;SDS011;9436;52.152;21.032;2022-09-27T00:24:28;23.00;;;20.63;;
18612;SDS011;9436;52.152;21.032;2022-09-27T00:26:55;22.93;;;20.67;;
18612;SDS011;9436;52.152;21.032;2022-09-27T00:29:23;22.10;;;19.90;;
18612;SDS011;9436;52.152;21.032;2022-09-27T00:31:50;23.30;;;21.00;;
18612;SDS011;9436;52.152;21.032;2022-09-27T00:34:18;22.90;;;20.60;;
18612;SDS011;9436;52.152;21.032;2022-09-27T00:36:47;22.27;;;19.97;;
18612;SDS011;9436;52.152;21.032;2022-09-27T00:39:15;23.60;;;21.10;;
18612;SDS011;9436;52.152;21.032;2022-09-27T00:41:42;23.43;;;20.97;;
18612;SDS011;9436;52.152;21.032;2022-09-27T00:47:24;23.83;;;20.83;;
18612;SDS011;9436;52.152;21.032;2022-09-27T00:49:56;24.10;;;21.60;;
18612;SDS011;9436;52.152;21.032;2022-09-27T00:52:30;22.57;;;20.20;;
18612;SDS011;9436;52.152;21.032;2022-09-27T00:55:03;24.43;;;21.83;;
18612;SDS011;9436;52.152;21.032;2022-09-27T00:57:34;23.77;;;21.37;;
18612;SDS011;9436;52.152;21.032;2022-09-27T01:00:03;23.97;;;21.47;;
18612;SDS011;9436;52.152;21.032;2022-09-27T01:02:33;23.80;;;21.30;;
18612;SDS011;9436;52.152;21.032;2022-09-27T01:05:02;24.27;;;21.67;;
18612;SDS011;9436;52.152;21.032;2022-09-27T01:07:32;23.03;;;20.57;;
18612;SDS011;9436;52.152;21.032;2022-09-27T01:10:00;23.90;;;21.33;;
18612;SDS011;9436;52.152;21.032;2022-09-27T01:12:29;23.10;;;20.60;;
18612;SDS011;9436;52.152;21.032;2022-09-27T01:15:04;22.70;;;20.17;;
18612;SDS011;9436;52.152;21.032;2022-09-27T01:17:46;23.00;;;20.70;;
18612;SDS011;9436;52.152;21.032;2022-09-27T01:20:31;25.30;;;22.63;;
18612;SDS011;9436;52.152;21.032;2022-09-27T01:23:17;24.50;;;21.90;;
18612;SDS011;9436;52.152;21.032;2022-09-27T01:26:02;24.47;;;21.83;;
18612;SDS011;9436;52.152;21.032;2022-09-27T01:28:43;24.23;;;21.67;;
18612;SDS011;9436;52.152;21.032;2022-09-27T01:31:22;24.20;;;21.60;;
18612;SDS011;9436;52.152;21.032;2022-09-27T01:33:57;26.33;;;21.70;;
18612;SDS011;9436;52.152;21.032;2022-09-27T01:36:33;24.33;;;21.23;;
18612;SDS011;9436;52.152;21.032;2022-09-27T01:39:08;23.57;;;21.07;;
18612;SDS011;9436;52.152;21.032;2022-09-27T01:41:46;23.73;;;21.13;;
18612;SDS011;9436;52.152;21.032;2022-09-27T01:44:22;23.87;;;20.80;;
18612;SDS011;9436;52.152;21.032;2022-09-27T01:46:55;23.43;;;21.03;;
18612;SDS011;9436;52.152;21.032;2022-09-27T01:49:29;22.83;;;20.43;;
18612;SDS011;9436;52.152;21.032;2022-09-27T01:51:59;23.60;;;21.10;;
18612;SDS011;9436;52.152;21.032;2022-09-27T01:54:32;22.17;;;19.87;;
18612;SDS011;9436;52.152;21.032;2022-09-27T01:57:04;22.70;;;20.30;;
18612;SDS011;9436;52.152;21.032;2022-09-27T01:59:36;22.47;;;20.20;;
18612;SDS011;9436;52.152;21.032;2022-09-27T02:02:08;22.53;;;20.13;;
18612;SDS011;9436;52.152;21.032;2022-09-27T02:04:37;22.53;;;20.20;;
18612;SDS011;9436;52.152;21.032;2022-09-27T02:07:07;21.80;;;19.57;;
18612;SDS011;9436;52.152;21.032;2022-09-27T02:09:43;23.43;;;20.93;;
18612;SDS011;9436;52.152;21.032;2022-09-27T02:12:15;22.40;;;20.10;;
18612;SDS011;9436;52.152;21.032;2022-09-27T02:14:47;22.37;;;20.07;;
18612;SDS011;9436;52.152;21.032;2022-09-27T02:17:22;24.40;;;21.87;;
18612;SDS011;9436;52.152;21.032;2022-09-27T02:19:59;23.77;;;21.30;;
18612;SDS011;9436;52.152;21.032;2022-09-27T02:22:34;23.53;;;21.10;;
18612;SDS011;9436;52.152;21.032;2022-09-27T02:25:04;24.10;;;21.30;;
18612;SDS011;9436;52.152;21.032;2022-09-27T02:27:39;25.37;;;22.53;;
18612;SDS011;9436;52.152;21.032;2022-09-27T02:30:14;24.00;;;21.33;;
18612;SDS011;9436;52.152;21.032;2022-09-27T02:32:43;25.03;;;22.13;;
18612;SDS011;9436;52.152;21.032;2022-09-27T02:35:11;24.67;;;22.07;;
18612;SDS011;9436;52.152;21.032;2022-09-27T02:37:43;26.07;;;23.27;;
18612;SDS011;9436;52.152;21.032;2022-09-27T02:40:11;26.17;;;23.00;;
18612;SDS011;9436;52.152;21.032;2022-09-27T02:42:39;26.03;;;23.23;;
18612;SDS011;9436;52.152;21.032;2022-09-27T02:45:08;27.07;;;24.17;;
18612;SDS011;9436;52.152;21.032;2022-09-27T02:47:43;26.20;;;23.30;;
18612;SDS011;9436;52.152;21.032;2022-09-27T02:50:41;25.93;;;23.03;;
18612;SDS011;9436;52.152;21.032;2022-09-27T02:53:21;27.53;;;24.50;;
18612;SDS011;9436;52.152;21.032;2022-09-27T02:55:57;26.20;;;23.13;;
18612;SDS011;9436;52.152;21.032;2022-09-27T02:58:33;26.47;;;23.67;;
18612;SDS011;9436;52.152;21.032;2022-09-27T03:01:11;27.17;;;24.27;;
18612;SDS011;9436;52.152;21.032;2022-09-27T03:03:48;26.23;;;23.43;;
18612;SDS011;9436;52.152;21.032;2022-09-27T03:06:20;28.00;;;24.63;;
18612;SDS011;9436;52.152;21.032;2022-09-27T03:08:49;26.53;;;23.63;;
18612;SDS011;9436;52.152;21.032;2022-09-27T03:11:16;28.07;;;24.10;;
18612;SDS011;9436;52.152;21.032;2022-09-27T03:13:43;26.40;;;23.60;;
18612;SDS011;9436;52.152;21.032;2022-09-27T03:16:10;26.07;;;23.27;;
18612;SDS011;9436;52.152;21.032;2022-09-27T03:18:40;26.10;;;23.37;;
18612;SDS011;9436;52.152;21.032;2022-09-27T03:21:09;25.70;;;22.87;;
18612;SDS011;9436;52.152;21.032;2022-09-27T03:23:35;27.73;;;24.53;;
18612;SDS011;9436;52.152;21.032;2022-09-27T03:26:03;27.83;;;23.90;;
18612;SDS011;9436;52.152;21.032;2022-09-27T03:28:30;26.73;;;23.87;;
18612;SDS011;9436;52.152;21.032;2022-09-27T03:30:57;26.00;;;23.20;;
18612;SDS011;9436;52.152;21.032;2022-09-27T03:33:24;27.27;;;23.20;;
18612;SDS011;9436;52.152;21.032;2022-09-27T03:35:51;26.30;;;23.50;;
18612;SDS011;9436;52.152;21.032;2022-09-27T03:38:19;27.63;;;24.67;;
18612;SDS011;9436;52.152;21.032;2022-09-27T03:40:46;29.20;;;25.33;;
18612;SDS011;9436;52.152;21.032;2022-09-27T03:43:13;29.70;;;25.37;;
18612;SDS011;9436;52.152;21.032;2022-09-27T03:45:41;27.53;;;24.53;;
18612;SDS011;9436;52.152;21.032;2022-09-27T03:48:09;26.93;;;24.03;;
18612;SDS011;9436;52.152;21.032;2022-09-27T03:50:36;25.37;;;22.67;;
18612;SDS011;9436;52.152;21.032;2022-09-27T03:53:03;25.30;;;22.70;;
18612;SDS011;9436;52.152;21.032;2022-09-27T03:55:31;26.70;;;23.87;;
18612;SDS011;9436;52.152;21.032;2022-09-27T03:57:59;27.03;;;23.57;;
18612;SDS011;9436;52.152;21.032;2022-09-27T04:00:27;26.73;;;23.83;;
18612;SDS011;9436;52.152;21.032;2022-09-27T04:02:56;29.47;;;26.27;;
18612;SDS011;9436;52.152;21.032;2022-09-27T04:05:23;30.97;;;27.53;;
18612;SDS011;9436;52.152;21.032;2022-09-27T04:07:51;30.20;;;26.33;;
18612;SDS011;9436;52.152;21.032;2022-09-27T04:10:18;29.77;;;26.10;;
18612;SDS011;9436;52.152;21.032;2022-09-27T04:12:47;31.40;;;26.97;;
18612;SDS011;9436;52.152;21.032;2022-09-27T04:15:14;33.67;;;27.90;;
18612;SDS011;9436;52.152;21.032;2022-09-27T04:17:42;31.47;;;27.10;;
18612;SDS011;9436;52.152;21.032;2022-09-27T04:20:09;32.70;;;27.67;;
18612;SDS011;9436;52.152;21.032;2022-09-27T04:22:38;34.03;;;28.23;;
18612;SDS011;9436;52.152;21.032;2022-09-27T04:25:06;34.37;;;28.87;;
18612;SDS011;9436;52.152;21.032;2022-09-27T04:27:33;35.00;;;29.83;;
18612;SDS011;9436;52.152;21.032;2022-09-27T04:30:02;34.53;;;28.73;;
18612;SDS011;9436;52.152;21.032;2022-09-27T04:32:30;34.27;;;28.30;;
18612;SDS011;9436;52.152;21.032;2022-09-27T04:34:58;32.63;;;27.47;;
18612;SDS011;9436;52.152;21.032;2022-09-27T04:37:42;31.73;;;27.07;;
18612;SDS011;9436;52.152;21.032;2022-09-27T04:40:10;31.90;;;28.40;;
18612;SDS011;9436;52.152;21.032;2022-09-27T04:42:37;32.30;;;27.57;;
18612;SDS011;9436;52.152;21.032;2022-09-27T04:45:06;33.47;;;27.70;;
18612;SDS011;9436;52.152;21.032;2022-09-27T04:47:34;32.37;;;27.23;;
18612;SDS011;9436;52.152;21.032;2022-09-27T04:50:01;31.00;;;26.77;;
18612;SDS011;9436;52.152;21.032;2022-09-27T04:52:28;34.63;;;27.03;;
18612;SDS011;9436;52.152;21.032;2022-09-27T04:54:57;33.20;;;29.67;;
18612;SDS011;9436;52.152;21.032;2022-09-27T04:57:24;32.57;;;27.27;;
18612;SDS011;9436;52.152;21.032;2022-09-27T04:59:51;32.47;;;26.93;;
18612;SDS011;9436;52.152;21.032;2022-09-27T05:02:19;33.83;;;28.17;;
18612;SDS011;9436;52.152;21.032;2022-09-27T05:04:46;31.80;;;26.73;;
18612;SDS011;9436;52.152;21.032;2022-09-27T05:07:13;32.50;;;26.47;;
18612;SDS011;9436;52.152;21.032;2022-09-27T05:09:40;33.47;;;27.47;;
18612;SDS011;9436;52.152;21.032;2022-09-27T05:12:08;33.27;;;27.30;;
18612;SDS011;9436;52.152;21.032;2022-09-27T05:14:37;31.50;;;25.97;;
18612;SDS011;9436;52.152;21.032;2022-09-27T05:17:04;33.13;;;26.27;;
18612;SDS011;9436;52.152;21.032;2022-09-27T05:19:33;33.30;;;29.70;;
18612;SDS011;9436;52.152;21.032;2022-09-27T05:22:03;31.90;;;26.37;;
18612;SDS011;9436;52.152;21.032;2022-09-27T05:24:31;32.27;;;25.57;;
18612;SDS011;9436;52.152;21.032;2022-09-27T05:26:58;35.80;;;27.50;;
18612;SDS011;9436;52.152;21.032;2022-09-27T05:29:26;31.87;;;25.47;;
18612;SDS011;9436;52.152;21.032;2022-09-27T05:31:53;33.63;;;26.70;;
18612;SDS011;9436;52.152;21.032;2022-09-27T05:34:20;34.00;;;27.37;;
18612;SDS011;9436;52.152;21.032;2022-09-27T05:36:48;34.63;;;27.50;;
18612;SDS011;9436;52.152;21.032;2022-09-27T05:39:15;31.17;;;24.50;;
18612;SDS011;9436;52.152;21.032;2022-09-27T05:41:43;32.43;;;25.60;;
18612;SDS011;9436;52.152;21.032;2022-09-27T05:44:10;28.87;;;21.07;;
18612;SDS011;9436;52.152;21.032;2022-09-27T05:46:38;29.57;;;24.33;;
18612;SDS011;9436;52.152;21.032;2022-09-27T05:49:05;29.60;;;23.77;;
18612;SDS011;9436;52.152;21.032;2022-09-27T05:51:32;28.47;;;21.90;;
18612;SDS011;9436;52.152;21.032;2022-09-27T05:54:00;27.80;;;21.43;;
18612;SDS011;9436;52.152;21.032;2022-09-27T05:56:27;24.87;;;20.83;;
18612;SDS011;9436;52.152;21.032;2022-09-27T05:58:55;23.23;;;18.40;;
18612;SDS011;9436;52.152;21.032;2022-09-27T06:01:23;20.03;;;16.90;;
18612;SDS011;9436;52.152;21.032;2022-09-27T06:03:52;22.47;;;18.33;;
18612;SDS011;9436;52.152;21.032;2022-09-27T06:06:19;23.93;;;18.87;;
18612;SDS011;9436;52.152;21.032;2022-09-27T06:08:47;24.30;;;17.67;;
18612;SDS011;9436;52.152;21.032;2022-09-27T06:11:16;21.53;;;17.43;;
18612;SDS011;9436;52.152;21.032;2022-09-27T06:13:43;21.97;;;17.37;;
18612;SDS011;9436;52.152;21.032;2022-09-27T06:16:10;20.87;;;17.40;;
18612;SDS011;9436;52.152;21.032;2022-09-27T06:18:37;21.50;;;17.10;;
18612;SDS011;9436;52.152;21.032;2022-09-27T06:21:04;19.90;;;16.63;;
18612;SDS011;9436;52.152;21.032;2022-09-27T06:23:32;23.23;;;16.07;;
18612;SDS011;9436;52.152;21.032;2022-09-27T06:26:00;20.77;;;16.00;;
18612;SDS011;9436;52.152;21.032;2022-09-27T06:28:29;19.00;;;16.27;;
18612;SDS011;9436;52.152;21.032;2022-09-27T06:30:56;18.53;;;14.70;;
18612;SDS011;9436;52.152;21.032;2022-09-27T06:33:25;18.53;;;15.57;;
18612;SDS011;9436;52.152;21.032;2022-09-27T06:35:53;16.93;;;14.50;;
18612;SDS011;9436;52.152;21.032;2022-09-27T06:38:20;16.67;;;14.40;;
18612;SDS011;9436;52.152;21.032;2022-09-27T06:40:49;18.63;;;14.37;;
18612;SDS011;9436;52.152;21.032;2022-09-27T06:43:16;17.60;;;14.13;;
18612;SDS011;9436;52.152;21.032;2022-09-27T06:45:46;18.07;;;14.63;;
18612;SDS011;9436;52.152;21.032;2022-09-27T06:48:14;19.57;;;15.37;;
18612;SDS011;9436;52.152;21.032;2022-09-27T06:50:42;19.07;;;15.10;;
18612;SDS011;9436;52.152;21.032;2022-09-27T06:53:11;20.20;;;15.03;;
18612;SDS011;9436;52.152;21.032;2022-09-27T06:55:39;20.17;;;16.00;;
18612;SDS011;9436;52.152;21.032;2022-09-27T06:58:06;19.40;;;15.77;;
18612;SDS011;9436;52.152;21.032;2022-09-27T07:00:55;19.50;;;15.40;;
18612;SDS011;9436;52.152;21.032;2022-09-27T07:03:22;17.90;;;14.77;;
18612;SDS011;9436;52.152;21.032;2022-09-27T07:05:56;20.20;;;15.77;;
18612;SDS011;9436;52.152;21.032;2022-09-27T07:08:24;19.77;;;15.37;;
18612;SDS011;9436;52.152;21.032;2022-09-27T07:10:53;22.80;;;16.30;;
18612;SDS011;9436;52.152;21.032;2022-09-27T07:13:21;21.17;;;16.70;;
18612;SDS011;9436;52.152;21.032;2022-09-27T07:15:48;23.60;;;17.10;;
18612;SDS011;9436;52.152;21.032;2022-09-27T07:18:16;24.00;;;17.47;;
18612;SDS011;9436;52.152;21.032;2022-09-27T07:20:44;24.83;;;18.97;;
18612;SDS011;9436;52.152;21.032;2022-09-27T07:23:11;26.50;;;18.67;;
18612;SDS011;9436;52.152;21.032;2022-09-27T07:25:40;23.70;;;17.37;;
18612;SDS011;9436;52.152;21.032;2022-09-27T07:28:09;25.67;;;18.63;;
18612;SDS011;9436;52.152;21.032;2022-09-27T07:30:39;24.67;;;18.30;;
18612;SDS011;9436;52.152;21.032;2022-09-27T07:33:06;25.20;;;19.00;;
18612;SDS011;9436;52.152;21.032;2022-09-27T07:35:37;26.27;;;19.80;;
18612;SDS011;9436;52.152;21.032;2022-09-27T07:38:05;27.53;;;19.90;;
18612;SDS011;9436;52.152;21.032;2022-09-27T07:40:34;24.97;;;18.73;;
18612;SDS011;9436;52.152;21.032;2022-09-27T07:43:02;24.47;;;19.57;;
18612;SDS011;9436;52.152;21.032;2022-09-27T07:45:30;26.37;;;18.93;;
18612;SDS011;9436;52.152;21.032;2022-09-27T07:47:57;27.07;;;19.93;;
18612;SDS011;9436;52.152;21.032;2022-09-27T07:50:24;26.47;;;19.83;;
18612;SDS011;9436;52.152;21.032;2022-09-27T07:52:54;27.70;;;19.23;;
18612;SDS011;9436;52.152;21.032;2022-09-27T07:55:21;24.80;;;19.30;;
18612;SDS011;9436;52.152;21.032;2022-09-27T07:57:48;26.80;;;19.63;;
18612;SDS011;9436;52.152;21.032;2022-09-27T08:00:16;24.63;;;18.60;;
18612;SDS011;9436;52.152;21.032;2022-09-27T08:02:45;24.00;;;18.80;;
18612;SDS011;9436;52.152;21.032;2022-09-27T08:05:12;24.70;;;19.53;;
18612;SDS011;9436;52.152;21.032;2022-09-27T08:07:39;21.93;;;18.17;;
18612;SDS011;9436;52.152;21.032;2022-09-27T08:10:08;22.70;;;18.37;;
18612;SDS011;9436;52.152;21.032;2022-09-27T08:12:35;24.23;;;19.33;;
18612;SDS011;9436;52.152;21.032;2022-09-27T08:15:03;25.50;;;19.60;;
18612;SDS011;9436;52.152;21.032;2022-09-27T08:17:31;23.40;;;18.73;;
18612;SDS011;9436;52.152;21.032;2022-09-27T08:19:59;21.93;;;18.43;;
18612;SDS011;9436;52.152;21.032;2022-09-27T08:22:29;20.37;;;18.17;;
18612;SDS011;9436;52.152;21.032;2022-09-27T08:24:56;23.17;;;19.13;;
18612;SDS011;9436;52.152;21.032;2022-09-27T08:27:25;21.27;;;18.97;;
18612;SDS011;9436;52.152;21.032;2022-09-27T08:29:52;22.37;;;18.87;;
18612;SDS011;9436;52.152;21.032;2022-09-27T08:32:19;21.87;;;19.57;;
18612;SDS011;9436;52.152;21.032;2022-09-27T08:34:46;21.60;;;19.30;;
18612;SDS011;9436;52.152;21.032;2022-09-27T08:37:13;21.40;;;17.97;;
18612;SDS011;9436;52.152;21.032;2022-09-27T08:39:40;21.93;;;19.50;;
18612;SDS011;9436;52.152;21.032;2022-09-27T08:42:09;20.93;;;18.63;;
18612;SDS011;9436;52.152;21.032;2022-09-27T08:44:46;21.30;;;19.00;;
18612;SDS011;9436;52.152;21.032;2022-09-27T08:47:21;21.20;;;18.53;;
18612;SDS011;9436;52.152;21.032;2022-09-27T08:49:53;21.00;;;18.17;;
18612;SDS011;9436;52.152;21.032;2022-09-27T08:52:25;19.53;;;17.43;;
18612;SDS011;9436;52.152;21.032;2022-09-27T08:54:55;20.10;;;18.00;;
18612;SDS011;9436;52.152;21.032;2022-09-27T08:57:26;19.30;;;17.23;;
18612;SDS011;9436;52.152;21.032;2022-09-27T09:00:02;20.23;;;17.50;;
18612;SDS011;9436;52.152;21.032;2022-09-27T09:02:31;18.07;;;16.17;;
18612;SDS011;9436;52.152;21.032;2022-09-27T09:05:01;21.17;;;18.50;;
18612;SDS011;9436;52.152;21.032;2022-09-27T09:07:36;19.87;;;17.63;;
18612;SDS011;9436;52.152;21.032;2022-09-27T09:10:16;22.47;;;18.43;;
18612;SDS011;9436;52.152;21.032;2022-09-27T09:13:04;21.27;;;17.90;;
18612;SDS011;9436;52.152;21.032;2022-09-27T09:15:42;21.93;;;18.77;;
18612;SDS011;9436;52.152;21.032;2022-09-27T09:18:25;23.40;;;18.70;;
18612;SDS011;9436;52.152;21.032;2022-09-27T09:21:05;24.63;;;19.27;;
18612;SDS011;9436;52.152;21.032;2022-09-27T09:26:32;21.23;;;18.40;;
18612;SDS011;9436;52.152;21.032;2022-09-27T09:29:08;24.57;;;19.83;;
18612;SDS011;9436;52.152;21.032;2022-09-27T09:31:52;21.60;;;18.07;;
18612;SDS011;9436;52.152;21.032;2022-09-27T09:34:28;24.60;;;20.23;;
18612;SDS011;9436;52.152;21.032;2022-09-27T09:37:01;24.17;;;19.07;;
18612;SDS011;9436;52.152;21.032;2022-09-27T09:39:32;24.10;;;19.13;;
18612;SDS011;9436;52.152;21.032;2022-09-27T09:42:06;24.10;;;19.43;;
18612;SDS011;9436;52.152;21.032;2022-09-27T09:44:40;24.77;;;20.63;;
18612;SDS011;9436;52.152;21.032;2022-09-27T09:47:14;23.67;;;19.57;;
18612;SDS011;9436;52.152;21.032;2022-09-27T09:49:50;23.23;;;20.17;;
18612;SDS011;9436;52.152;21.032;2022-09-27T09:52:22;21.13;;;18.83;;
18612;SDS011;9436;52.152;21.032;2022-09-27T09:54:52;24.13;;;19.30;;
18612;SDS011;9436;52.152;21.032;2022-09-27T09:57:24;21.67;;;19.37;;
18612;SDS011;9436;52.152;21.032;2022-09-27T09:59:54;21.03;;;18.83;;
18612;SDS011;9436;52.152;21.032;2022-09-27T10:02:29;22.27;;;19.10;;
18612;SDS011;9436;52.152;21.032;2022-09-27T10:05:00;24.73;;;20.10;;
18612;SDS011;9436;52.152;21.032;2022-09-27T10:07:28;21.67;;;19.33;;
18612;SDS011;9436;52.152;21.032;2022-09-27T10:09:58;22.83;;;20.17;;
18612;SDS011;9436;52.152;21.032;2022-09-27T10:12:27;21.63;;;19.20;;
18612;SDS011;9436;52.152;21.032;2022-09-27T10:14:56;22.30;;;19.83;;
18612;SDS011;9436;52.152;21.032;2022-09-27T10:17:32;22.70;;;20.07;;
18612;SDS011;9436;52.152;21.032;2022-09-27T10:20:04;24.33;;;20.50;;
18612;SDS011;9436;52.152;21.032;2022-09-27T10:22:33;23.13;;;20.73;;
18612;SDS011;9436;52.152;21.032;2022-09-27T10:25:03;22.33;;;19.93;;
18612;SDS011;9436;52.152;21.032;2022-09-27T10:27:37;22.67;;;20.27;;
18612;SDS011;9436;52.152;21.032;2022-09-27T10:30:12;21.93;;;19.63;;
18612;SDS011;9436;52.152;21.032;2022-09-27T10:32:50;23.40;;;20.97;;
18612;SDS011;9436;52.152;21.032;2022-09-27T10:35:30;24.07;;;21.13;;
18612;SDS011;9436;52.152;21.032;2022-09-27T10:38:15;22.37;;;20.07;;
18612;SDS011;9436;52.152;21.032;2022-09-27T10:40:47;21.90;;;19.70;;
18612;SDS011;9436;52.152;21.032;2022-09-27T10:43:25;21.57;;;19.37;;
18612;SDS011;9436;52.152;21.032;2022-09-27T10:45:58;21.20;;;19.13;;
18612;SDS011;9436;52.152;21.032;2022-09-27T10:48:30;22.43;;;20.13;;
18612;SDS011;9436;52.152;21.032;2022-09-27T10:51:00;21.50;;;19.30;;
18612;SDS011;9436;52.152;21.032;2022-09-27T10:53:29;20.10;;;18.00;;
18612;SDS011;9436;52.152;21.032;2022-09-27T10:56:00;22.57;;;20.30;;
18612;SDS011;9436;52.152;21.032;2022-09-27T10:58:29;21.80;;;19.70;;
18612;SDS011;9436;52.152;21.032;2022-09-27T11:00:58;21.37;;;19.27;;
18612;SDS011;9436;52.152;21.032;2022-09-27T11:03:28;20.73;;;18.73;;
18612;SDS011;9436;52.152;21.032;2022-09-27T11:05:58;20.73;;;18.70;;
18612;SDS011;9436;52.152;21.032;2022-09-27T11:08:30;21.63;;;19.63;;
18612;SDS011;9436;52.152;21.032;2022-09-27T11:11:02;21.97;;;19.80;;
18612;SDS011;9436;52.152;21.032;2022-09-27T11:13:41;21.23;;;19.27;;
18612;SDS011;9436;52.152;21.032;2022-09-27T11:16:27;22.17;;;20.07;;
18612;SDS011;9436;52.152;21.032;2022-09-27T11:19:07;21.77;;;19.60;;
18612;SDS011;9436;52.152;21.032;2022-09-27T11:21:43;20.73;;;18.70;;
18612;SDS011;9436;52.152;21.032;2022-09-27T11:24:26;20.57;;;18.63;;
18612;SDS011;9436;52.152;21.032;2022-09-27T11:27:16;21.37;;;19.27;;
18612;SDS011;9436;52.152;21.032;2022-09-27T11:29:56;22.33;;;19.93;;
18612;SDS011;9436;52.152;21.032;2022-09-27T11:32:32;20.83;;;18.83;;
18612;SDS011;9436;52.152;21.032;2022-09-27T11:35:24;22.17;;;19.97;;
18612;SDS011;9436;52.152;21.032;2022-09-27T11:38:01;21.17;;;19.07;;
18612;SDS011;9436;52.152;21.032;2022-09-27T11:40:41;19.87;;;18.07;;
18612;SDS011;9436;52.152;21.032;2022-09-27T11:46:17;18.97;;;17.10;;
18612;SDS011;9436;52.152;21.032;2022-09-27T11:48:54;19.10;;;17.27;;
18612;SDS011;9436;52.152;21.032;2022-09-27T11:51:52;19.37;;;17.57;;
18612;SDS011;9436;52.152;21.032;2022-09-27T11:54:33;19.10;;;17.40;;
18612;SDS011;9436;52.152;21.032;2022-09-27T11:57:11;19.97;;;18.17;;
18612;SDS011;9436;52.152;21.032;2022-09-27T12:02:55;18.30;;;16.67;;
18612;SDS011;9436;52.152;21.032;2022-09-27T12:05:47;18.10;;;16.50;;
18612;SDS011;9436;52.152;21.032;2022-09-27T12:08:35;16.83;;;15.13;;
18612;SDS011;9436;52.152;21.032;2022-09-27T12:11:18;18.70;;;17.03;;
18612;SDS011;9436;52.152;21.032;2022-09-27T12:13:49;18.33;;;16.67;;
18612;SDS011;9436;52.152;21.032;2022-09-27T12:16:20;18.33;;;16.63;;
18612;SDS011;9436;52.152;21.032;2022-09-27T12:18:49;19.83;;;17.93;;
18612;SDS011;9436;52.152;21.032;2022-09-27T12:21:17;14.53;;;13.23;;
18612;SDS011;9436;52.152;21.032;2022-09-27T12:23:47;14.13;;;12.93;;
18612;SDS011;9436;52.152;21.032;2022-09-27T12:26:18;16.60;;;15.17;;
18612;SDS011;9436;52.152;21.032;2022-09-27T12:28:50;16.23;;;14.73;;
18612;SDS011;9436;52.152;21.032;2022-09-27T12:31:20;16.43;;;14.93;;
18612;SDS011;9436;52.152;21.032;2022-09-27T12:33:54;15.10;;;13.80;;
18612;SDS011;9436;52.152;21.032;2022-09-27T12:36:31;15.87;;;14.47;;
18612;SDS011;9436;52.152;21.032;2022-09-27T12:39:22;13.37;;;12.13;;
18612;SDS011;9436;52.152;21.032;2022-09-27T12:41:55;13.90;;;12.70;;
18612;SDS011;9436;52.152;21.032;2022-09-27T12:44:30;12.70;;;11.70;;
18612;SDS011;9436;52.152;21.032;2022-09-27T12:47:05;13.63;;;12.53;;
18612;SDS011;9436;52.152;21.032;2022-09-27T12:49:40;13.00;;;11.70;;
18612;SDS011;9436;52.152;21.032;2022-09-27T12:52:15;14.17;;;12.07;;
18612;SDS011;9436;52.152;21.032;2022-09-27T12:54:58;13.03;;;11.83;;
18612;SDS011;9436;52.152;21.032;2022-09-27T12:57:38;12.90;;;11.80;;
18612;SDS011;9436;52.152;21.032;2022-09-27T13:00:16;12.13;;;10.93;;
18612;SDS011;9436;52.152;21.032;2022-09-27T13:03:04;12.30;;;11.30;;
18612;SDS011;9436;52.152;21.032;2022-09-27T13:05:52;12.13;;;11.13;;
18612;SDS011;9436;52.152;21.032;2022-09-27T13:08:45;12.17;;;11.07;;
18612;SDS011;9436;52.152;21.032;2022-09-27T13:11:40;11.43;;;10.40;;
18612;SDS011;9436;52.152;21.032;2022-09-27T13:14:16;12.73;;;11.53;;
18612;SDS011;9436;52.152;21.032;2022-09-27T13:16:45;11.20;;;10.20;;
18612;SDS011;9436;52.152;21.032;2022-09-27T13:19:37;10.73;;;9.83;;
18612;SDS011;9436;52.152;21.032;2022-09-27T13:22:08;11.00;;;10.00;;
18612;SDS011;9436;52.152;21.032;2022-09-27T13:24:56;10.47;;;9.43;;
18612;SDS011;9436;52.152;21.032;2022-09-27T13:27:40;10.10;;;9.30;;
18612;SDS011;9436;52.152;21.032;2022-09-27T13:33:21;9.17;;;8.43;;
18612;SDS011;9436;52.152;21.032;2022-09-27T13:36:07;9.50;;;8.70;;
18612;SDS011;9436;52.152;21.032;2022-09-27T13:38:52;9.43;;;8.53;;
18612;SDS011;9436;52.152;21.032;2022-09-27T13:41:41;9.60;;;8.70;;
18612;SDS011;9436;52.152;21.032;2022-09-27T13:44:40;8.80;;;8.00;;
18612;SDS011;9436;52.152;21.032;2022-09-27T13:47:26;9.00;;;8.20;;
18612;SDS011;9436;52.152;21.032;2022-09-27T13:50:01;9.10;;;8.30;;
18612;SDS011;9436;52.152;21.032;2022-09-27T13:52:40;9.57;;;8.13;;
18612;SDS011;9436;52.152;21.032;2022-09-27T13:58:14;8.63;;;7.83;;
18612;SDS011;9436;52.152;21.032;2022-09-27T14:00:54;8.27;;;7.57;;
18612;SDS011;9436;52.152;21.032;2022-09-27T14:03:27;8.77;;;8.07;;
18612;SDS011;9436;52.152;21.032;2022-09-27T14:05:56;8.70;;;8.00;;
18612;SDS011;9436;52.152;21.032;2022-09-27T14:08:26;9.20;;;8.30;;
18612;SDS011;9436;52.152;21.032;2022-09-27T14:10:57;8.87;;;8.17;;
18612;SDS011;9436;52.152;21.032;2022-09-27T14:13:25;8.33;;;7.63;;
18612;SDS011;9436;52.152;21.032;2022-09-27T14:15:54;9.50;;;8.70;;
18612;SDS011;9436;52.152;21.032;2022-09-27T14:18:24;9.50;;;8.30;;
18612;SDS011;9436;52.152;21.032;2022-09-27T14:20:51;9.83;;;8.83;;
18612;SDS011;9436;52.152;21.032;2022-09-27T14:23:20;9.47;;;8.57;;
18612;SDS011;9436;52.152;21.032;2022-09-27T14:25:49;9.30;;;8.40;;
18612;SDS011;9436;52.152;21.032;2022-09-27T14:28:22;9.50;;;8.60;;
18612;SDS011;9436;52.152;21.032;2022-09-27T14:31:09;9.73;;;8.93;;
18612;SDS011;9436;52.152;21.032;2022-09-27T14:33:41;9.73;;;8.93;;
18612;SDS011;9436;52.152;21.032;2022-09-27T14:36:14;9.80;;;8.90;;
18612;SDS011;9436;52.152;21.032;2022-09-27T14:39:19;8.73;;;8.03;;
18612;SDS011;9436;52.152;21.032;2022-09-27T14:41:48;9.23;;;8.27;;
18612;SDS011;9436;52.152;21.032;2022-09-27T14:44:16;9.43;;;8.53;;
18612;SDS011;9436;52.152;21.032;2022-09-27T14:46:46;11.40;;;8.53;;
18612;SDS011;9436;52.152;21.032;2022-09-27T14:49:23;9.93;;;9.03;;
18612;SDS011;9436;52.152;21.032;2022-09-27T14:51:51;9.03;;;8.20;;
18612;SDS011;9436;52.152;21.032;2022-09-27T14:54:19;9.37;;;8.47;;
18612;SDS011;9436;52.152;21.032;2022-09-27T14:56:50;9.00;;;8.10;;
18612;SDS011;9436;52.152;21.032;2022-09-27T14:59:21;10.70;;;9.70;;
18612;SDS011;9436;52.152;21.032;2022-09-27T15:01:56;9.87;;;9.07;;
18612;SDS011;9436;52.152;21.032;2022-09-27T15:04:25;10.40;;;9.50;;
18612;SDS011;9436;52.152;21.032;2022-09-27T15:06:54;9.50;;;8.80;;
18612;SDS011;9436;52.152;21.032;2022-09-27T15:09:22;10.20;;;9.40;;
18612;SDS011;9436;52.152;21.032;2022-09-27T15:11:52;9.87;;;8.97;;